sensor_id;sensor_type;location;lat;lon;timestamp;P1;durP1;ratioP1;P2;durP2;ratioP2
11911;SDS011;6016;41.928;25.556;2023-12-20T00:01:58;35.28;;;15.15;;
11911;SDS011;6016;41.928;25.556;2023-12-20T00:04:25;30.13;;;12.65;;
11911;SDS011;6016;41.928;25.556;2023-12-20T00:06:52;31.50;;;12.73;;
11911;SDS011;6016;41.928;25.556;2023-12-20T00:09:19;27.83;;;12.85;;
11911;SDS011;6016;41.928;25.556;2023-12-20T00:11:46;34.70;;;16.63;;
11911;SDS011;6016;41.928;25.556;2023-12-20T00:14:14;37.60;;;18.13;;
11911;SDS011;6016;41.928;25.556;2023-12-20T00:16:41;35.53;;;17.25;;
11911;SDS011;6016;41.928;25.556;2023-12-20T00:19:08;38.13;;;18.13;;
11911;SDS011;6016;41.928;25.556;2023-12-20T00:21:35;35.22;;;16.58;;
11911;SDS011;6016;41.928;25.556;2023-12-20T00:24:03;33.10;;;13.88;;
11911;SDS011;6016;41.928;25.556;2023-12-20T00:26:30;30.30;;;13.52;;
11911;SDS011;6016;41.928;25.556;2023-12-20T00:28:58;31.58;;;13.98;;
11911;SDS011;6016;41.928;25.556;2023-12-20T00:31:26;29.90;;;13.18;;
11911;SDS011;6016;41.928;25.556;2023-12-20T00:33:53;30.95;;;13.57;;
11911;SDS011;6016;41.928;25.556;2023-12-20T00:36:20;30.27;;;13.55;;
11911;SDS011;6016;41.928;25.556;2023-12-20T00:38:47;31.38;;;14.13;;
11911;SDS011;6016;41.928;25.556;2023-12-20T00:41:15;33.83;;;13.73;;
11911;SDS011;6016;41.928;25.556;2023-12-20T00:43:42;30.85;;;12.77;;
11911;SDS011;6016;41.928;25.556;2023-12-20T00:46:09;34.13;;;13.43;;
11911;SDS011;6016;41.928;25.556;2023-12-20T00:48:38;31.45;;;14.18;;
11911;SDS011;6016;41.928;25.556;2023-12-20T00:51:07;29.58;;;13.88;;
11911;SDS011;6016;41.928;25.556;2023-12-20T00:53:34;28.58;;;13.63;;
11911;SDS011;6016;41.928;25.556;2023-12-20T00:56:01;31.55;;;13.70;;
11911;SDS011;6016;41.928;25.556;2023-12-20T00:58:28;31.40;;;13.68;;
11911;SDS011;6016;41.928;25.556;2023-12-20T01:00:55;28.83;;;12.02;;
11911;SDS011;6016;41.928;25.556;2023-12-20T01:03:23;27.33;;;12.82;;
11911;SDS011;6016;41.928;25.556;2023-12-20T01:05:51;25.88;;;11.45;;
11911;SDS011;6016;41.928;25.556;2023-12-20T01:08:18;21.88;;;11.05;;
11911;SDS011;6016;41.928;25.556;2023-12-20T01:10:45;21.20;;;10.32;;
11911;SDS011;6016;41.928;25.556;2023-12-20T01:13:13;24.10;;;11.27;;
11911;SDS011;6016;41.928;25.556;2023-12-20T01:15:39;23.48;;;10.35;;
11911;SDS011;6016;41.928;25.556;2023-12-20T01:18:06;22.75;;;9.63;;
11911;SDS011;6016;41.928;25.556;2023-12-20T01:20:32;19.02;;;8.32;;
11911;SDS011;6016;41.928;25.556;2023-12-20T01:23:01;17.98;;;8.35;;
11911;SDS011;6016;41.928;25.556;2023-12-20T01:25:28;14.02;;;7.75;;
11911;SDS011;6016;41.928;25.556;2023-12-20T01:27:55;20.80;;;7.95;;
11911;SDS011;6016;41.928;25.556;2023-12-20T01:30:22;19.58;;;8.57;;
11911;SDS011;6016;41.928;25.556;2023-12-20T01:32:49;16.83;;;7.85;;
11911;SDS011;6016;41.928;25.556;2023-12-20T01:35:16;20.88;;;9.25;;
11911;SDS011;6016;41.928;25.556;2023-12-20T01:37:42;19.83;;;10.30;;
11911;SDS011;6016;41.928;25.556;2023-12-20T01:40:11;33.78;;;15.93;;
11911;SDS011;6016;41.928;25.556;2023-12-20T01:42:38;38.60;;;18.38;;
11911;SDS011;6016;41.928;25.556;2023-12-20T01:45:06;42.17;;;19.15;;
11911;SDS011;6016;41.928;25.556;2023-12-20T01:47:33;42.13;;;17.77;;
11911;SDS011;6016;41.928;25.556;2023-12-20T01:50:00;39.15;;;18.35;;
11911;SDS011;6016;41.928;25.556;2023-12-20T01:52:29;33.45;;;16.52;;
11911;SDS011;6016;41.928;25.556;2023-12-20T01:54:56;30.95;;;14.05;;
11911;SDS011;6016;41.928;25.556;2023-12-20T01:57:29;18.02;;;9.20;;
11911;SDS011;6016;41.928;25.556;2023-12-20T01:59:57;15.20;;;8.50;;
11911;SDS011;6016;41.928;25.556;2023-12-20T02:02:24;17.35;;;8.10;;
11911;SDS011;6016;41.928;25.556;2023-12-20T02:04:54;19.23;;;9.75;;
11911;SDS011;6016;41.928;25.556;2023-12-20T02:07:21;17.73;;;8.93;;
11911;SDS011;6016;41.928;25.556;2023-12-20T02:09:49;21.08;;;10.38;;
11911;SDS011;6016;41.928;25.556;2023-12-20T02:12:16;18.83;;;8.90;;
11911;SDS011;6016;41.928;25.556;2023-12-20T02:14:46;14.10;;;6.50;;
11911;SDS011;6016;41.928;25.556;2023-12-20T02:17:13;10.60;;;5.05;;
11911;SDS011;6016;41.928;25.556;2023-12-20T02:19:40;11.85;;;5.90;;
11911;SDS011;6016;41.928;25.556;2023-12-20T02:22:09;9.73;;;4.97;;
11911;SDS011;6016;41.928;25.556;2023-12-20T02:24:36;10.23;;;4.95;;
11911;SDS011;6016;41.928;25.556;2023-12-20T02:27:04;9.05;;;3.80;;
11911;SDS011;6016;41.928;25.556;2023-12-20T02:29:32;8.25;;;4.10;;
11911;SDS011;6016;41.928;25.556;2023-12-20T02:32:00;7.43;;;3.47;;
11911;SDS011;6016;41.928;25.556;2023-12-20T02:34:28;6.50;;;2.85;;
11911;SDS011;6016;41.928;25.556;2023-12-20T02:36:55;5.28;;;2.60;;
11911;SDS011;6016;41.928;25.556;2023-12-20T02:39:23;6.78;;;2.75;;
11911;SDS011;6016;41.928;25.556;2023-12-20T02:41:50;6.47;;;3.03;;
11911;SDS011;6016;41.928;25.556;2023-12-20T02:44:17;6.22;;;3.28;;
11911;SDS011;6016;41.928;25.556;2023-12-20T02:46:44;4.90;;;2.53;;
11911;SDS011;6016;41.928;25.556;2023-12-20T02:49:11;5.85;;;2.80;;
11911;SDS011;6016;41.928;25.556;2023-12-20T02:51:38;4.32;;;2.53;;
11911;SDS011;6016;41.928;25.556;2023-12-20T02:54:05;3.55;;;2.20;;
11911;SDS011;6016;41.928;25.556;2023-12-20T02:56:34;4.28;;;2.38;;
11911;SDS011;6016;41.928;25.556;2023-12-20T02:59:01;6.72;;;3.20;;
11911;SDS011;6016;41.928;25.556;2023-12-20T03:01:30;5.53;;;2.70;;
11911;SDS011;6016;41.928;25.556;2023-12-20T03:03:58;5.57;;;2.70;;
11911;SDS011;6016;41.928;25.556;2023-12-20T03:06:25;4.03;;;2.38;;
11911;SDS011;6016;41.928;25.556;2023-12-20T03:08:52;4.90;;;2.20;;
11911;SDS011;6016;41.928;25.556;2023-12-20T03:11:19;5.72;;;3.20;;
11911;SDS011;6016;41.928;25.556;2023-12-20T03:13:47;3.83;;;2.10;;
11911;SDS011;6016;41.928;25.556;2023-12-20T03:16:14;5.07;;;2.60;;
11911;SDS011;6016;41.928;25.556;2023-12-20T03:18:41;4.57;;;2.65;;
11911;SDS011;6016;41.928;25.556;2023-12-20T03:21:08;4.95;;;2.45;;
11911;SDS011;6016;41.928;25.556;2023-12-20T03:23:35;4.20;;;2.40;;
11911;SDS011;6016;41.928;25.556;2023-12-20T03:26:03;5.03;;;2.70;;
11911;SDS011;6016;41.928;25.556;2023-12-20T03:28:29;4.90;;;2.53;;
11911;SDS011;6016;41.928;25.556;2023-12-20T03:30:58;8.45;;;3.05;;
11911;SDS011;6016;41.928;25.556;2023-12-20T03:33:25;5.25;;;2.72;;
11911;SDS011;6016;41.928;25.556;2023-12-20T03:35:52;5.68;;;2.90;;
11911;SDS011;6016;41.928;25.556;2023-12-20T03:38:19;6.82;;;2.85;;
11911;SDS011;6016;41.928;25.556;2023-12-20T03:40:46;6.07;;;2.90;;
11911;SDS011;6016;41.928;25.556;2023-12-20T03:43:13;5.55;;;3.25;;
11911;SDS011;6016;41.928;25.556;2023-12-20T03:45:41;6.40;;;3.22;;
11911;SDS011;6016;41.928;25.556;2023-12-20T03:48:10;10.38;;;2.63;;
11911;SDS011;6016;41.928;25.556;2023-12-20T03:50:37;9.27;;;3.72;;
11911;SDS011;6016;41.928;25.556;2023-12-20T03:53:04;6.20;;;2.80;;
11911;SDS011;6016;41.928;25.556;2023-12-20T03:55:31;6.03;;;2.92;;
11911;SDS011;6016;41.928;25.556;2023-12-20T03:57:58;5.25;;;2.95;;
11911;SDS011;6016;41.928;25.556;2023-12-20T04:00:25;6.57;;;3.00;;
11911;SDS011;6016;41.928;25.556;2023-12-20T04:02:52;7.07;;;3.08;;
11911;SDS011;6016;41.928;25.556;2023-12-20T04:05:20;5.85;;;2.65;;
11911;SDS011;6016;41.928;25.556;2023-12-20T04:07:47;6.75;;;2.75;;
11911;SDS011;6016;41.928;25.556;2023-12-20T04:10:15;6.05;;;2.85;;
11911;SDS011;6016;41.928;25.556;2023-12-20T04:12:42;6.85;;;2.80;;
11911;SDS011;6016;41.928;25.556;2023-12-20T04:15:09;5.70;;;2.70;;
11911;SDS011;6016;41.928;25.556;2023-12-20T04:17:37;5.72;;;2.85;;
11911;SDS011;6016;41.928;25.556;2023-12-20T04:20:04;5.18;;;2.97;;
11911;SDS011;6016;41.928;25.556;2023-12-20T04:22:33;6.63;;;3.10;;
11911;SDS011;6016;41.928;25.556;2023-12-20T04:25:00;5.10;;;3.22;;
11911;SDS011;6016;41.928;25.556;2023-12-20T04:27:28;5.30;;;3.05;;
11911;SDS011;6016;41.928;25.556;2023-12-20T04:29:55;6.50;;;3.38;;
11911;SDS011;6016;41.928;25.556;2023-12-20T04:32:22;6.68;;;3.25;;
11911;SDS011;6016;41.928;25.556;2023-12-20T04:34:49;7.30;;;3.40;;
11911;SDS011;6016;41.928;25.556;2023-12-20T04:37:16;9.95;;;3.97;;
11911;SDS011;6016;41.928;25.556;2023-12-20T04:39:44;9.70;;;4.20;;
11911;SDS011;6016;41.928;25.556;2023-12-20T04:42:11;8.00;;;4.03;;
11911;SDS011;6016;41.928;25.556;2023-12-20T04:44:38;9.50;;;4.10;;
11911;SDS011;6016;41.928;25.556;2023-12-20T04:47:05;6.78;;;3.78;;
11911;SDS011;6016;41.928;25.556;2023-12-20T04:49:32;7.72;;;3.88;;
11911;SDS011;6016;41.928;25.556;2023-12-20T04:51:59;9.23;;;4.15;;
11911;SDS011;6016;41.928;25.556;2023-12-20T04:54:26;8.98;;;4.13;;
11911;SDS011;6016;41.928;25.556;2023-12-20T04:56:55;6.50;;;3.78;;
11911;SDS011;6016;41.928;25.556;2023-12-20T04:59:22;9.23;;;4.20;;
11911;SDS011;6016;41.928;25.556;2023-12-20T05:01:49;7.68;;;3.95;;
11911;SDS011;6016;41.928;25.556;2023-12-20T05:04:16;10.98;;;4.13;;
11911;SDS011;6016;41.928;25.556;2023-12-20T05:06:43;7.90;;;3.83;;
11911;SDS011;6016;41.928;25.556;2023-12-20T05:09:10;7.85;;;4.03;;
11911;SDS011;6016;41.928;25.556;2023-12-20T05:11:37;8.00;;;3.92;;
11911;SDS011;6016;41.928;25.556;2023-12-20T05:14:06;7.65;;;3.65;;
11911;SDS011;6016;41.928;25.556;2023-12-20T05:16:33;8.75;;;4.07;;
11911;SDS011;6016;41.928;25.556;2023-12-20T05:19:00;9.60;;;3.65;;
11911;SDS011;6016;41.928;25.556;2023-12-20T05:21:31;7.45;;;3.90;;
11911;SDS011;6016;41.928;25.556;2023-12-20T05:23:58;10.02;;;4.40;;
11911;SDS011;6016;41.928;25.556;2023-12-20T05:26:26;9.77;;;4.82;;
11911;SDS011;6016;41.928;25.556;2023-12-20T05:28:54;22.98;;;9.18;;
11911;SDS011;6016;41.928;25.556;2023-12-20T05:31:23;15.35;;;6.72;;
11911;SDS011;6016;41.928;25.556;2023-12-20T05:33:50;13.20;;;5.85;;
11911;SDS011;6016;41.928;25.556;2023-12-20T05:36:17;14.15;;;6.13;;
11911;SDS011;6016;41.928;25.556;2023-12-20T05:38:45;15.63;;;7.88;;
11911;SDS011;6016;41.928;25.556;2023-12-20T05:41:12;19.02;;;8.50;;
11911;SDS011;6016;41.928;25.556;2023-12-20T05:43:38;18.27;;;9.60;;
11911;SDS011;6016;41.928;25.556;2023-12-20T05:46:06;19.60;;;10.10;;
11911;SDS011;6016;41.928;25.556;2023-12-20T05:48:35;21.73;;;10.18;;
11911;SDS011;6016;41.928;25.556;2023-12-20T05:51:02;28.15;;;11.20;;
11911;SDS011;6016;41.928;25.556;2023-12-20T05:53:29;24.00;;;10.30;;
11911;SDS011;6016;41.928;25.556;2023-12-20T05:55:56;21.73;;;10.25;;
11911;SDS011;6016;41.928;25.556;2023-12-20T05:58:24;22.00;;;9.52;;
11911;SDS011;6016;41.928;25.556;2023-12-20T06:00:52;17.88;;;8.98;;
11911;SDS011;6016;41.928;25.556;2023-12-20T06:10:41;17.08;;;6.95;;
11911;SDS011;6016;41.928;25.556;2023-12-20T06:13:14;24.02;;;11.32;;
11911;SDS011;6016;41.928;25.556;2023-12-20T06:16:24;29.73;;;12.30;;
11911;SDS011;6016;41.928;25.556;2023-12-20T06:19:11;33.30;;;14.48;;
11911;SDS011;6016;41.928;25.556;2023-12-20T06:22:32;19.55;;;9.80;;
11911;SDS011;6016;41.928;25.556;2023-12-20T06:25:29;25.63;;;11.98;;
11911;SDS011;6016;41.928;25.556;2023-12-20T06:31:44;27.77;;;14.40;;
11911;SDS011;6016;41.928;25.556;2023-12-20T06:34:54;28.20;;;13.15;;
11911;SDS011;6016;41.928;25.556;2023-12-20T06:37:47;29.77;;;12.70;;
11911;SDS011;6016;41.928;25.556;2023-12-20T06:48:05;26.25;;;13.27;;
11911;SDS011;6016;41.928;25.556;2023-12-20T06:51:17;49.92;;;19.58;;
11911;SDS011;6016;41.928;25.556;2023-12-20T06:54:13;102.22;;;40.85;;
11911;SDS011;6016;41.928;25.556;2023-12-20T06:57:06;163.13;;;61.15;;
11911;SDS011;6016;41.928;25.556;2023-12-20T07:00:36;149.82;;;55.75;;
11911;SDS011;6016;41.928;25.556;2023-12-20T07:06:44;143.63;;;56.30;;
11911;SDS011;6016;41.928;25.556;2023-12-20T07:09:27;159.27;;;63.03;;
11911;SDS011;6016;41.928;25.556;2023-12-20T07:12:07;170.93;;;79.00;;
11911;SDS011;6016;41.928;25.556;2023-12-20T07:15:03;160.18;;;70.30;;
11911;SDS011;6016;41.928;25.556;2023-12-20T07:17:37;142.98;;;60.63;;
11911;SDS011;6016;41.928;25.556;2023-12-20T07:20:13;127.00;;;55.80;;
11911;SDS011;6016;41.928;25.556;2023-12-20T07:50:43;134.55;;;57.92;;
11911;SDS011;6016;41.928;25.556;2023-12-20T07:53:10;130.32;;;56.80;;
11911;SDS011;6016;41.928;25.556;2023-12-20T07:55:37;137.45;;;58.42;;
11911;SDS011;6016;41.928;25.556;2023-12-20T07:58:05;141.40;;;59.38;;
11911;SDS011;6016;41.928;25.556;2023-12-20T08:00:32;167.98;;;74.53;;
11911;SDS011;6016;41.928;25.556;2023-12-20T08:02:59;181.60;;;78.05;;
11911;SDS011;6016;41.928;25.556;2023-12-20T08:05:30;153.98;;;67.78;;
11911;SDS011;6016;41.928;25.556;2023-12-20T08:07:57;156.02;;;67.55;;
11911;SDS011;6016;41.928;25.556;2023-12-20T08:10:23;147.50;;;66.50;;
11911;SDS011;6016;41.928;25.556;2023-12-20T08:12:50;187.75;;;79.28;;
11911;SDS011;6016;41.928;25.556;2023-12-20T08:15:17;189.68;;;85.40;;
11911;SDS011;6016;41.928;25.556;2023-12-20T08:17:44;163.52;;;78.25;;
11911;SDS011;6016;41.928;25.556;2023-12-20T08:20:11;162.25;;;73.32;;
11911;SDS011;6016;41.928;25.556;2023-12-20T08:22:43;176.00;;;81.53;;
11911;SDS011;6016;41.928;25.556;2023-12-20T08:25:10;189.02;;;89.90;;
11911;SDS011;6016;41.928;25.556;2023-12-20T08:27:39;177.52;;;89.60;;
11911;SDS011;6016;41.928;25.556;2023-12-20T08:30:08;189.63;;;96.85;;
11911;SDS011;6016;41.928;25.556;2023-12-20T08:32:35;176.82;;;85.82;;
11911;SDS011;6016;41.928;25.556;2023-12-20T08:35:03;179.02;;;90.90;;
11911;SDS011;6016;41.928;25.556;2023-12-20T08:37:31;174.18;;;87.60;;
11911;SDS011;6016;41.928;25.556;2023-12-20T08:39:59;187.30;;;92.40;;
11911;SDS011;6016;41.928;25.556;2023-12-20T08:42:26;168.88;;;80.65;;
11911;SDS011;6016;41.928;25.556;2023-12-20T08:44:56;161.52;;;73.95;;
11911;SDS011;6016;41.928;25.556;2023-12-20T08:47:23;158.93;;;78.65;;
11911;SDS011;6016;41.928;25.556;2023-12-20T08:49:50;155.18;;;75.90;;
11911;SDS011;6016;41.928;25.556;2023-12-20T08:52:21;152.95;;;73.30;;
11911;SDS011;6016;41.928;25.556;2023-12-20T08:54:48;198.77;;;96.00;;
11911;SDS011;6016;41.928;25.556;2023-12-20T08:57:19;156.38;;;73.55;;
11911;SDS011;6016;41.928;25.556;2023-12-20T08:59:48;156.25;;;75.03;;
11911;SDS011;6016;41.928;25.556;2023-12-20T09:02:15;139.98;;;69.80;;
11911;SDS011;6016;41.928;25.556;2023-12-20T09:04:42;147.75;;;71.60;;
11911;SDS011;6016;41.928;25.556;2023-12-20T09:07:20;150.90;;;71.55;;
11911;SDS011;6016;41.928;25.556;2023-12-20T09:09:47;143.55;;;66.78;;
11911;SDS011;6016;41.928;25.556;2023-12-20T09:12:14;136.20;;;65.28;;
11911;SDS011;6016;41.928;25.556;2023-12-20T09:14:43;128.68;;;61.20;;
11911;SDS011;6016;41.928;25.556;2023-12-20T09:17:10;129.98;;;55.90;;
11911;SDS011;6016;41.928;25.556;2023-12-20T09:19:37;111.03;;;51.60;;
11911;SDS011;6016;41.928;25.556;2023-12-20T09:22:04;103.82;;;48.22;;
11911;SDS011;6016;41.928;25.556;2023-12-20T09:24:31;100.13;;;45.42;;
11911;SDS011;6016;41.928;25.556;2023-12-20T09:26:58;77.30;;;37.00;;
11911;SDS011;6016;41.928;25.556;2023-12-20T09:29:25;100.78;;;49.38;;
11911;SDS011;6016;41.928;25.556;2023-12-20T09:31:53;106.38;;;50.78;;
11911;SDS011;6016;41.928;25.556;2023-12-20T09:34:20;105.47;;;50.58;;
11911;SDS011;6016;41.928;25.556;2023-12-20T09:36:47;97.38;;;47.45;;
11911;SDS011;6016;41.928;25.556;2023-12-20T09:39:14;85.65;;;39.38;;
11911;SDS011;6016;41.928;25.556;2023-12-20T09:41:44;91.78;;;42.08;;
11911;SDS011;6016;41.928;25.556;2023-12-20T09:44:14;83.88;;;40.78;;
11911;SDS011;6016;41.928;25.556;2023-12-20T09:46:43;76.28;;;36.00;;
11911;SDS011;6016;41.928;25.556;2023-12-20T09:49:13;82.63;;;38.00;;
11911;SDS011;6016;41.928;25.556;2023-12-20T09:51:40;90.15;;;43.88;;
11911;SDS011;6016;41.928;25.556;2023-12-20T09:54:08;94.93;;;44.17;;
11911;SDS011;6016;41.928;25.556;2023-12-20T09:56:37;79.68;;;38.67;;
11911;SDS011;6016;41.928;25.556;2023-12-20T09:59:04;64.25;;;30.67;;
11911;SDS011;6016;41.928;25.556;2023-12-20T10:01:31;61.25;;;28.90;;
11911;SDS011;6016;41.928;25.556;2023-12-20T10:04:00;59.88;;;29.13;;
11911;SDS011;6016;41.928;25.556;2023-12-20T10:06:33;55.13;;;26.57;;
11911;SDS011;6016;41.928;25.556;2023-12-20T10:09:00;49.35;;;24.13;;
11911;SDS011;6016;41.928;25.556;2023-12-20T10:11:29;44.03;;;19.88;;
11911;SDS011;6016;41.928;25.556;2023-12-20T10:13:58;40.88;;;19.63;;
11911;SDS011;6016;41.928;25.556;2023-12-20T10:16:26;36.47;;;18.65;;
11911;SDS011;6016;41.928;25.556;2023-12-20T10:18:54;40.53;;;20.15;;
11911;SDS011;6016;41.928;25.556;2023-12-20T10:21:21;32.47;;;17.35;;
11911;SDS011;6016;41.928;25.556;2023-12-20T10:23:50;37.85;;;17.83;;
11911;SDS011;6016;41.928;25.556;2023-12-20T10:26:21;33.75;;;16.52;;
11911;SDS011;6016;41.928;25.556;2023-12-20T10:28:50;28.05;;;14.02;;
11911;SDS011;6016;41.928;25.556;2023-12-20T10:31:28;28.45;;;14.25;;
11911;SDS011;6016;41.928;25.556;2023-12-20T10:33:56;33.45;;;16.83;;
11911;SDS011;6016;41.928;25.556;2023-12-20T10:36:25;31.05;;;16.25;;
11911;SDS011;6016;41.928;25.556;2023-12-20T10:38:54;37.22;;;17.50;;
11911;SDS011;6016;41.928;25.556;2023-12-20T10:41:25;39.00;;;15.80;;
11911;SDS011;6016;41.928;25.556;2023-12-20T10:43:53;33.00;;;15.82;;
11911;SDS011;6016;41.928;25.556;2023-12-20T10:46:24;35.67;;;17.48;;
11911;SDS011;6016;41.928;25.556;2023-12-20T10:48:53;33.60;;;16.58;;
11911;SDS011;6016;41.928;25.556;2023-12-20T10:51:21;37.00;;;17.05;;
11911;SDS011;6016;41.928;25.556;2023-12-20T10:53:49;33.83;;;15.98;;
11911;SDS011;6016;41.928;25.556;2023-12-20T10:56:18;35.00;;;16.15;;
11911;SDS011;6016;41.928;25.556;2023-12-20T10:58:46;35.05;;;15.80;;
11911;SDS011;6016;41.928;25.556;2023-12-20T11:01:14;29.65;;;14.23;;
11911;SDS011;6016;41.928;25.556;2023-12-20T11:03:44;28.25;;;13.77;;
11911;SDS011;6016;41.928;25.556;2023-12-20T11:06:18;23.70;;;12.18;;
11911;SDS011;6016;41.928;25.556;2023-12-20T11:09:03;26.95;;;12.20;;
11911;SDS011;6016;41.928;25.556;2023-12-20T11:11:45;23.63;;;12.23;;
11911;SDS011;6016;41.928;25.556;2023-12-20T11:14:23;19.48;;;9.77;;
11911;SDS011;6016;41.928;25.556;2023-12-20T11:17:05;21.90;;;9.38;;
11911;SDS011;6016;41.928;25.556;2023-12-20T11:19:31;18.02;;;8.73;;
11911;SDS011;6016;41.928;25.556;2023-12-20T11:21:58;15.77;;;8.68;;
11911;SDS011;6016;41.928;25.556;2023-12-20T11:24:25;18.20;;;9.13;;
11911;SDS011;6016;41.928;25.556;2023-12-20T11:26:56;16.27;;;8.88;;
11911;SDS011;6016;41.928;25.556;2023-12-20T11:29:30;16.95;;;8.80;;
11911;SDS011;6016;41.928;25.556;2023-12-20T11:31:59;20.15;;;8.77;;
11911;SDS011;6016;41.928;25.556;2023-12-20T11:34:27;21.80;;;10.07;;
11911;SDS011;6016;41.928;25.556;2023-12-20T11:36:58;19.60;;;10.18;;
11911;SDS011;6016;41.928;25.556;2023-12-20T11:39:25;22.25;;;11.02;;
11911;SDS011;6016;41.928;25.556;2023-12-20T11:41:55;21.70;;;10.73;;
11911;SDS011;6016;41.928;25.556;2023-12-20T11:44:25;25.23;;;12.43;;
11911;SDS011;6016;41.928;25.556;2023-12-20T11:46:52;20.80;;;11.63;;
11911;SDS011;6016;41.928;25.556;2023-12-20T11:49:22;30.42;;;13.07;;
11911;SDS011;6016;41.928;25.556;2023-12-20T11:51:50;20.58;;;11.43;;
11911;SDS011;6016;41.928;25.556;2023-12-20T11:54:17;19.75;;;11.02;;
11911;SDS011;6016;41.928;25.556;2023-12-20T11:56:45;18.40;;;9.82;;
11911;SDS011;6016;41.928;25.556;2023-12-20T11:59:14;19.40;;;10.93;;
11911;SDS011;6016;41.928;25.556;2023-12-20T12:01:47;19.25;;;10.32;;
11911;SDS011;6016;41.928;25.556;2023-12-20T12:04:15;25.95;;;12.00;;
11911;SDS011;6016;41.928;25.556;2023-12-20T12:06:43;24.10;;;13.15;;
11911;SDS011;6016;41.928;25.556;2023-12-20T12:09:10;27.33;;;13.57;;
11911;SDS011;6016;41.928;25.556;2023-12-20T12:11:37;25.42;;;13.30;;
11911;SDS011;6016;41.928;25.556;2023-12-20T12:14:04;25.15;;;13.05;;
11911;SDS011;6016;41.928;25.556;2023-12-20T12:16:34;21.95;;;11.18;;
11911;SDS011;6016;41.928;25.556;2023-12-20T12:19:01;20.30;;;10.63;;
11911;SDS011;6016;41.928;25.556;2023-12-20T12:21:29;24.77;;;12.32;;
11911;SDS011;6016;41.928;25.556;2023-12-20T12:24:05;25.90;;;12.75;;
11911;SDS011;6016;41.928;25.556;2023-12-20T12:26:33;27.63;;;13.07;;
11911;SDS011;6016;41.928;25.556;2023-12-20T12:29:00;26.83;;;13.50;;
11911;SDS011;6016;41.928;25.556;2023-12-20T12:31:27;28.35;;;14.77;;
11911;SDS011;6016;41.928;25.556;2023-12-20T12:33:57;29.02;;;14.63;;
11911;SDS011;6016;41.928;25.556;2023-12-20T12:36:24;28.02;;;14.60;;
11911;SDS011;6016;41.928;25.556;2023-12-20T12:38:51;27.92;;;14.70;;
11911;SDS011;6016;41.928;25.556;2023-12-20T12:41:18;30.95;;;14.90;;
11911;SDS011;6016;41.928;25.556;2023-12-20T12:43:45;33.97;;;15.27;;
11911;SDS011;6016;41.928;25.556;2023-12-20T12:46:12;30.60;;;15.60;;
11911;SDS011;6016;41.928;25.556;2023-12-20T12:48:39;35.38;;;15.10;;
11911;SDS011;6016;41.928;25.556;2023-12-20T12:51:07;36.33;;;17.63;;
11911;SDS011;6016;41.928;25.556;2023-12-20T12:53:38;39.30;;;19.00;;
11911;SDS011;6016;41.928;25.556;2023-12-20T12:56:05;31.95;;;16.45;;
11911;SDS011;6016;41.928;25.556;2023-12-20T12:58:32;26.17;;;13.35;;
11911;SDS011;6016;41.928;25.556;2023-12-20T13:00:59;23.23;;;12.38;;
11911;SDS011;6016;41.928;25.556;2023-12-20T13:03:26;39.53;;;18.40;;
11911;SDS011;6016;41.928;25.556;2023-12-20T13:05:53;30.48;;;14.13;;
11911;SDS011;6016;41.928;25.556;2023-12-20T13:08:22;35.20;;;19.38;;
11911;SDS011;6016;41.928;25.556;2023-12-20T13:10:49;42.15;;;18.50;;
11911;SDS011;6016;41.928;25.556;2023-12-20T13:13:16;40.80;;;19.50;;
11911;SDS011;6016;41.928;25.556;2023-12-20T13:15:43;48.33;;;20.38;;
11911;SDS011;6016;41.928;25.556;2023-12-20T13:18:15;52.28;;;21.00;;
11911;SDS011;6016;41.928;25.556;2023-12-20T13:20:43;46.20;;;18.83;;
11911;SDS011;6016;41.928;25.556;2023-12-20T13:23:10;46.30;;;20.45;;
11911;SDS011;6016;41.928;25.556;2023-12-20T13:25:39;44.65;;;20.90;;
11911;SDS011;6016;41.928;25.556;2023-12-20T13:28:06;39.90;;;20.23;;
11911;SDS011;6016;41.928;25.556;2023-12-20T13:30:33;41.92;;;19.83;;
11911;SDS011;6016;41.928;25.556;2023-12-20T13:33:01;39.15;;;19.30;;
11911;SDS011;6016;41.928;25.556;2023-12-20T13:35:27;37.78;;;19.85;;
11911;SDS011;6016;41.928;25.556;2023-12-20T13:37:54;46.03;;;19.30;;
11911;SDS011;6016;41.928;25.556;2023-12-20T13:40:22;43.60;;;18.42;;
11911;SDS011;6016;41.928;25.556;2023-12-20T13:42:50;46.55;;;19.58;;
11911;SDS011;6016;41.928;25.556;2023-12-20T13:45:17;49.67;;;19.05;;
11911;SDS011;6016;41.928;25.556;2023-12-20T13:47:44;43.28;;;20.50;;
11911;SDS011;6016;41.928;25.556;2023-12-20T13:50:11;52.97;;;23.55;;
11911;SDS011;6016;41.928;25.556;2023-12-20T13:52:38;49.05;;;24.30;;
11911;SDS011;6016;41.928;25.556;2023-12-20T13:55:06;59.22;;;26.50;;
11911;SDS011;6016;41.928;25.556;2023-12-20T13:57:33;61.38;;;29.55;;
11911;SDS011;6016;41.928;25.556;2023-12-20T14:00:04;60.47;;;27.73;;
11911;SDS011;6016;41.928;25.556;2023-12-20T14:02:39;84.13;;;37.92;;
11911;SDS011;6016;41.928;25.556;2023-12-20T14:05:06;70.72;;;34.20;;
11911;SDS011;6016;41.928;25.556;2023-12-20T14:07:34;77.70;;;36.75;;
11911;SDS011;6016;41.928;25.556;2023-12-20T14:10:01;77.47;;;35.05;;
11911;SDS011;6016;41.928;25.556;2023-12-20T14:12:28;75.93;;;34.17;;
11911;SDS011;6016;41.928;25.556;2023-12-20T14:14:55;69.70;;;32.80;;
11911;SDS011;6016;41.928;25.556;2023-12-20T14:17:23;62.33;;;31.52;;
11911;SDS011;6016;41.928;25.556;2023-12-20T14:19:50;62.08;;;29.50;;
11911;SDS011;6016;41.928;25.556;2023-12-20T14:22:19;62.67;;;29.25;;
11911;SDS011;6016;41.928;25.556;2023-12-20T14:24:46;59.15;;;28.90;;
11911;SDS011;6016;41.928;25.556;2023-12-20T14:27:13;62.53;;;29.52;;
11911;SDS011;6016;41.928;25.556;2023-12-20T14:29:39;68.07;;;32.10;;
11911;SDS011;6016;41.928;25.556;2023-12-20T14:32:06;72.95;;;34.67;;
11911;SDS011;6016;41.928;25.556;2023-12-20T14:34:35;66.20;;;32.03;;
11911;SDS011;6016;41.928;25.556;2023-12-20T14:37:03;68.47;;;32.72;;
11911;SDS011;6016;41.928;25.556;2023-12-20T14:39:31;69.50;;;34.25;;
11911;SDS011;6016;41.928;25.556;2023-12-20T14:41:58;71.88;;;32.35;;
11911;SDS011;6016;41.928;25.556;2023-12-20T14:44:25;75.30;;;35.50;;
11911;SDS011;6016;41.928;25.556;2023-12-20T14:46:52;91.28;;;43.80;;
11911;SDS011;6016;41.928;25.556;2023-12-20T14:49:19;95.00;;;46.13;;
11911;SDS011;6016;41.928;25.556;2023-12-20T14:51:47;82.00;;;40.88;;
11911;SDS011;6016;41.928;25.556;2023-12-20T14:54:14;83.78;;;38.03;;
11911;SDS011;6016;41.928;25.556;2023-12-20T14:56:41;77.38;;;37.78;;
11911;SDS011;6016;41.928;25.556;2023-12-20T14:59:08;78.75;;;38.05;;
11911;SDS011;6016;41.928;25.556;2023-12-20T15:01:36;73.82;;;36.80;;
11911;SDS011;6016;41.928;25.556;2023-12-20T15:04:04;68.63;;;32.53;;
11911;SDS011;6016;41.928;25.556;2023-12-20T15:06:30;73.95;;;35.22;;
11911;SDS011;6016;41.928;25.556;2023-12-20T15:09:00;75.85;;;34.58;;
11911;SDS011;6016;41.928;25.556;2023-12-20T15:11:27;83.97;;;43.20;;
11911;SDS011;6016;41.928;25.556;2023-12-20T15:13:54;140.38;;;73.07;;
11911;SDS011;6016;41.928;25.556;2023-12-20T15:16:22;73.85;;;38.63;;
11911;SDS011;6016;41.928;25.556;2023-12-20T15:18:49;67.63;;;33.40;;
11911;SDS011;6016;41.928;25.556;2023-12-20T15:21:16;72.00;;;36.30;;
11911;SDS011;6016;41.928;25.556;2023-12-20T15:23:43;52.35;;;25.90;;
11911;SDS011;6016;41.928;25.556;2023-12-20T15:26:19;58.85;;;29.00;;
11911;SDS011;6016;41.928;25.556;2023-12-20T15:28:46;52.42;;;26.70;;